createdAt,value
2022-08-21T00:00:46.374Z,14.67
2022-08-21T00:03:15.479Z,13.67
2022-08-21T00:05:47.091Z,10.90
2022-08-21T00:08:15.808Z,10.70
2022-08-21T00:10:45.252Z,10.13
2022-08-21T00:13:18.764Z,9.67
2022-08-21T00:15:48.756Z,9.03
2022-08-21T00:18:18.474Z,9.17
2022-08-21T00:20:47.751Z,8.70
2022-08-21T00:23:16.080Z,8.30
2022-08-21T00:25:45.170Z,8.47
2022-08-21T00:28:15.499Z,8.80
2022-08-21T00:30:44.776Z,8.33
2022-08-21T00:33:14.068Z,9.07
2022-08-21T00:35:44.807Z,8.53
2022-08-21T00:38:13.753Z,8.87
2022-08-21T00:40:48.264Z,8.57
2022-08-21T00:43:22.551Z,8.97
2022-08-21T00:45:50.862Z,8.93
2022-08-21T00:48:19.407Z,8.07
2022-08-21T00:50:55.438Z,8.10
2022-08-21T00:53:25.379Z,8.47
2022-08-21T00:55:54.362Z,8.00
2022-08-21T00:58:28.754Z,8.93
2022-08-21T01:00:59.032Z,8.87
2022-08-21T01:03:27.690Z,8.17
2022-08-21T01:05:56.649Z,8.13
2022-08-21T01:08:26.064Z,7.83
2022-08-21T01:10:55.961Z,7.37
2022-08-21T01:13:26.462Z,7.17
2022-08-21T01:16:00.275Z,7.53
2022-08-21T01:18:29.465Z,7.13
2022-08-21T01:21:10.235Z,6.50
2022-08-21T01:23:45.985Z,6.73
2022-08-21T01:26:18.365Z,7.83
2022-08-21T01:28:52.274Z,6.30
2022-08-21T01:31:26.178Z,6.83
2022-08-21T01:33:55.711Z,5.90
2022-08-21T01:36:26.261Z,6.20
2022-08-21T01:38:54.728Z,6.53
2022-08-21T01:41:22.977Z,5.93
2022-08-21T01:43:51.545Z,5.57
2022-08-21T01:46:19.748Z,5.97
2022-08-21T01:48:47.914Z,5.43
2022-08-21T01:51:16.047Z,5.27
2022-08-21T01:53:45.841Z,5.33
2022-08-21T01:56:16.695Z,5.43
2022-08-21T01:58:47.921Z,5.40
2022-08-21T02:01:17.169Z,5.10
2022-08-21T02:03:45.454Z,5.20
2022-08-21T02:06:18.777Z,5.50
2022-08-21T02:08:51.436Z,4.97
2022-08-21T02:11:19.788Z,5.17
2022-08-21T02:13:48.026Z,4.97
2022-08-21T02:16:19.200Z,5.27
2022-08-21T02:18:48.310Z,5.47
2022-08-21T02:21:16.523Z,6.07
2022-08-21T02:23:44.897Z,6.03
2022-08-21T02:26:14.982Z,6.07
2022-08-21T02:28:43.673Z,5.73
2022-08-21T02:31:12.530Z,6.23
2022-08-21T02:33:41.915Z,5.57
2022-08-21T02:36:11.479Z,6.00
2022-08-21T02:38:41.974Z,5.97
2022-08-21T02:41:15.199Z,6.03
2022-08-21T02:43:44.067Z,6.57
2022-08-21T02:46:15.401Z,6.90
2022-08-21T02:48:43.922Z,6.67
2022-08-21T02:51:15.991Z,6.57
2022-08-21T02:53:44.768Z,7.07
2022-08-21T02:56:18.791Z,7.00
2022-08-21T02:58:50.222Z,7.40
2022-08-21T03:01:18.438Z,7.03
2022-08-21T03:03:50.926Z,7.47
2022-08-21T03:06:22.543Z,7.70
2022-08-21T03:08:51.833Z,6.90
2022-08-21T03:11:21.775Z,7.63
2022-08-21T03:13:49.906Z,7.10
2022-08-21T03:16:19.722Z,8.03
2022-08-21T03:18:48.024Z,6.80
2022-08-21T03:21:16.989Z,7.60
2022-08-21T03:23:45.020Z,7.90
2022-08-21T03:26:13.426Z,7.70
2022-08-21T03:28:43.443Z,7.00
2022-08-21T03:31:11.494Z,7.43
2022-08-21T03:33:39.632Z,7.60
2022-08-21T03:36:10.228Z,7.90
2022-08-21T03:38:39.950Z,8.47
2022-08-21T03:41:09.455Z,8.03
2022-08-21T03:43:39.575Z,7.97
2022-08-21T03:46:09.328Z,7.63
2022-08-21T03:48:40.449Z,8.37
2022-08-21T03:51:09.099Z,8.67
2022-08-21T03:53:37.332Z,8.50
2022-08-21T03:56:06.669Z,8.70
2022-08-21T03:58:34.883Z,7.77
2022-08-21T04:01:05.503Z,8.53
2022-08-21T04:03:37.838Z,8.73
2022-08-21T04:06:07.161Z,8.17
2022-08-21T04:08:35.993Z,8.13
2022-08-21T04:11:04.477Z,8.40
2022-08-21T04:13:32.749Z,7.70
2022-08-21T04:16:00.883Z,7.80
2022-08-21T04:18:29.162Z,8.23
2022-08-21T04:21:03.209Z,7.90
2022-08-21T04:23:33.104Z,7.70
2022-08-21T04:26:01.358Z,8.17
2022-08-21T04:28:31.135Z,7.40
2022-08-21T04:31:00.125Z,7.60
2022-08-21T04:33:28.343Z,7.57
2022-08-21T04:35:57.945Z,7.93
2022-08-21T04:38:27.143Z,7.90
2022-08-21T04:41:05.721Z,7.50
2022-08-21T04:43:34.240Z,8.03
2022-08-21T04:46:02.862Z,8.67
2022-08-21T04:48:31.112Z,8.70
2022-08-21T04:51:07.737Z,8.83
2022-08-21T04:53:40.835Z,7.57
2022-08-21T04:56:13.757Z,8.33
2022-08-21T04:58:42.748Z,8.00
2022-08-21T05:01:21.570Z,8.67
2022-08-21T05:03:51.837Z,8.60
2022-08-21T05:06:22.206Z,8.17
2022-08-21T05:09:01.486Z,8.77
2022-08-21T05:11:31.678Z,8.63
2022-08-21T05:14:00.220Z,8.67
2022-08-21T05:16:36.708Z,8.00
2022-08-21T05:19:06.450Z,8.20
2022-08-21T05:21:36.187Z,8.83
2022-08-21T05:24:05.178Z,8.30
2022-08-21T05:26:33.663Z,8.47
2022-08-21T05:29:13.587Z,8.27
2022-08-21T05:31:41.742Z,8.30
2022-08-21T05:34:10.075Z,7.90
2022-08-21T05:36:39.761Z,7.50
2022-08-21T05:39:07.911Z,8.40
2022-08-21T05:41:36.094Z,7.77
2022-08-21T05:44:04.903Z,8.10
2022-08-21T05:46:38.585Z,8.07
2022-08-21T05:49:06.724Z,8.73
2022-08-21T05:51:35.000Z,7.77
2022-08-21T05:54:05.380Z,6.80
2022-08-21T05:56:33.778Z,7.37
2022-08-21T05:59:01.970Z,7.73
2022-08-21T06:01:31.809Z,6.90
2022-08-21T06:04:00.172Z,6.70
2022-08-21T06:06:29.637Z,7.33
2022-08-21T06:08:57.685Z,7.20
2022-08-21T06:11:29.148Z,6.47
2022-08-21T06:14:01.009Z,6.50
2022-08-21T06:16:30.566Z,6.73
2022-08-21T06:19:02.637Z,7.00
2022-08-21T06:21:31.330Z,6.27
2022-08-21T06:23:59.547Z,6.27
2022-08-21T06:26:30.148Z,6.57
2022-08-21T06:28:58.343Z,6.40
2022-08-21T06:31:29.678Z,6.80
2022-08-21T06:33:58.310Z,6.27
2022-08-21T06:36:26.469Z,6.10
2022-08-21T06:38:54.559Z,6.33
2022-08-21T06:41:26.464Z,5.63
2022-08-21T06:43:58.238Z,7.37
2022-08-21T06:46:28.323Z,6.17
2022-08-21T06:48:57.007Z,6.20
2022-08-21T06:51:26.817Z,6.00
2022-08-21T06:53:55.373Z,13.33
2022-08-21T06:56:23.559Z,6.43
2022-08-21T06:58:51.826Z,5.20
2022-08-21T07:01:22.172Z,5.40
2022-08-21T07:03:53.859Z,5.60
2022-08-21T07:06:21.955Z,4.90
2022-08-21T07:08:50.104Z,5.47
2022-08-21T07:11:22.257Z,4.80
2022-08-21T07:13:53.512Z,4.60
2022-08-21T07:16:23.974Z,4.00
2022-08-21T07:18:52.120Z,3.80
2022-08-21T07:21:25.230Z,3.67
2022-08-21T07:23:54.657Z,3.87
2022-08-21T07:26:24.906Z,3.60
2022-08-21T07:28:53.677Z,3.60
2022-08-21T07:31:26.273Z,3.23
2022-08-21T07:33:56.461Z,3.33
2022-08-21T07:36:24.990Z,3.30
2022-08-21T07:38:53.215Z,3.50
2022-08-21T07:41:25.616Z,3.53
2022-08-21T07:43:53.823Z,3.07
2022-08-21T07:46:23.296Z,3.27
2022-08-21T07:48:51.429Z,3.93
2022-08-21T07:51:26.456Z,3.70
2022-08-21T07:53:57.274Z,3.60
2022-08-21T07:56:25.544Z,3.50
2022-08-21T07:58:53.792Z,3.80
2022-08-21T08:01:24.609Z,4.17
2022-08-21T08:03:53.070Z,3.90
2022-08-21T08:06:21.258Z,3.77
2022-08-21T08:08:49.631Z,3.73
2022-08-21T08:11:18.461Z,3.60
2022-08-21T08:13:49.710Z,3.80
2022-08-21T08:16:18.324Z,3.87
2022-08-21T08:18:48.363Z,3.60
2022-08-21T08:21:17.082Z,3.33
2022-08-21T08:23:46.056Z,3.50
2022-08-21T08:26:14.637Z,3.03
2022-08-21T08:28:42.752Z,3.43
2022-08-21T08:31:11.015Z,3.73
2022-08-21T08:33:39.667Z,3.80
2022-08-21T08:36:16.741Z,3.33
2022-08-21T08:38:45.072Z,3.70
2022-08-21T08:41:17.486Z,3.17
2022-08-21T08:43:53.913Z,2.83
2022-08-21T08:46:31.271Z,3.50
2022-08-21T08:49:05.181Z,3.23
2022-08-21T08:51:45.564Z,3.30
2022-08-21T08:54:20.165Z,3.50
2022-08-21T08:56:48.732Z,3.40
2022-08-21T08:59:21.050Z,2.53
2022-08-21T09:01:49.559Z,2.80
2022-08-21T09:04:24.859Z,3.60
2022-08-21T09:07:08.666Z,2.70
2022-08-21T09:09:54.379Z,2.50
2022-08-21T09:12:35.684Z,3.03
2022-08-21T09:15:14.937Z,2.90
2022-08-21T09:18:07.952Z,2.60
2022-08-21T09:20:43.459Z,3.30
2022-08-21T09:23:27.392Z,2.30
2022-08-21T09:26:03.532Z,2.45
2022-08-21T09:28:35.699Z,2.60
2022-08-21T09:31:08.418Z,2.92
2022-08-21T09:33:36.978Z,2.65
2022-08-21T09:36:06.350Z,2.60
2022-08-21T09:38:38.879Z,2.00
2022-08-21T09:41:10.858Z,1.98
2022-08-21T09:43:40.522Z,2.38
2022-08-21T09:46:12.668Z,2.15
2022-08-21T09:48:47.599Z,1.90
2022-08-21T09:51:20.175Z,2.22
2022-08-21T09:53:55.103Z,2.47
2022-08-21T09:56:51.298Z,2.50
2022-08-21T09:59:27.072Z,1.98
2022-08-21T10:01:56.730Z,1.83
2022-08-21T10:04:30.301Z,2.20
2022-08-21T10:07:09.777Z,1.98
2022-08-21T10:09:39.927Z,2.10
2022-08-21T10:12:19.149Z,2.55
2022-08-21T10:14:57.069Z,2.20
2022-08-21T10:17:33.698Z,1.65
2022-08-21T10:20:08.037Z,1.83
2022-08-21T10:22:47.389Z,2.17
2022-08-21T10:25:27.554Z,2.10
2022-08-21T10:28:13.521Z,2.00
2022-08-21T10:30:58.710Z,1.67
2022-08-21T10:33:37.473Z,1.80
2022-08-21T10:36:15.741Z,1.52
2022-08-21T10:39:25.243Z,1.65
2022-08-21T10:42:21.848Z,1.80
2022-08-21T10:45:13.436Z,1.60
2022-08-21T10:47:56.050Z,1.98
2022-08-21T10:50:33.682Z,1.50
2022-08-21T10:53:31.829Z,1.90
2022-08-21T10:56:07.294Z,1.70
2022-08-21T10:58:44.632Z,1.92
2022-08-21T11:01:20.378Z,1.70
2022-08-21T11:03:54.301Z,1.70
2022-08-21T11:06:27.588Z,1.92
2022-08-21T11:09:02.037Z,1.80
2022-08-21T11:11:38.049Z,1.42
2022-08-21T11:14:32.092Z,1.73
2022-08-21T11:17:12.166Z,1.55
2022-08-21T11:20:06.638Z,1.63
2022-08-21T11:22:54.549Z,1.70
2022-08-21T11:25:33.763Z,1.83
2022-08-21T11:28:14.603Z,1.77
2022-08-21T11:30:57.029Z,1.58
2022-08-21T11:33:45.182Z,1.98
2022-08-21T11:36:25.095Z,1.73
2022-08-21T11:39:00.787Z,1.75
2022-08-21T11:41:34.402Z,1.98
2022-08-21T11:44:14.060Z,1.90
2022-08-21T11:46:52.020Z,1.75
2022-08-21T11:49:38.377Z,1.95
2022-08-21T11:52:15.847Z,1.90
2022-08-21T11:54:49.085Z,1.80
2022-08-21T11:57:24.072Z,1.90
2022-08-21T12:00:01.809Z,1.67
2022-08-21T12:02:37.367Z,1.83
2022-08-21T12:05:10.542Z,2.50
2022-08-21T12:07:42.043Z,1.92
2022-08-21T12:10:14.264Z,2.10
2022-08-21T12:12:46.205Z,2.15
2022-08-21T12:15:28.387Z,2.25
2022-08-21T12:18:05.997Z,2.50
2022-08-21T12:20:50.841Z,2.53
2022-08-21T12:23:31.131Z,2.67
2022-08-21T12:26:27.497Z,3.20
2022-08-21T12:29:17.098Z,3.45
2022-08-21T12:31:56.414Z,3.03
2022-08-21T12:34:38.580Z,2.70
2022-08-21T12:37:17.488Z,2.10
2022-08-21T12:39:49.118Z,1.98
2022-08-21T12:42:21.354Z,2.17
2022-08-21T12:44:55.195Z,1.98
2022-08-21T12:47:31.974Z,2.10
2022-08-21T12:50:07.992Z,1.90
2022-08-21T12:52:42.650Z,2.80
2022-08-21T12:55:14.584Z,2.17
2022-08-21T12:57:43.830Z,2.60
2022-08-21T13:00:21.992Z,2.45
2022-08-21T13:02:52.981Z,1.60
2022-08-21T13:05:36.552Z,1.80
2022-08-21T13:08:08.915Z,2.28
2022-08-21T13:10:38.405Z,1.88
2022-08-21T13:13:13.217Z,2.00
2022-08-21T13:15:47.657Z,2.20
2022-08-21T13:18:25.413Z,2.05
2022-08-21T13:21:05.273Z,2.45
2022-08-21T13:23:49.580Z,2.20
2022-08-21T13:26:21.200Z,1.90
2022-08-21T13:28:51.319Z,1.85
2022-08-21T13:31:24.292Z,1.90
2022-08-21T13:33:53.242Z,2.05
2022-08-21T13:36:30.162Z,2.05
2022-08-21T13:38:58.701Z,2.15
2022-08-21T13:41:30.269Z,2.35
2022-08-21T13:44:02.449Z,2.20
2022-08-21T13:46:38.189Z,2.10
2022-08-21T13:49:08.489Z,2.35
2022-08-21T13:51:39.086Z,2.35
2022-08-21T13:54:19.269Z,2.20
2022-08-21T13:56:48.645Z,2.30
2022-08-21T13:59:29.286Z,2.17
2022-08-21T14:02:01.935Z,2.33
2022-08-21T14:04:37.785Z,2.72
2022-08-21T14:07:19.617Z,2.40
2022-08-21T14:09:48.956Z,2.40
2022-08-21T14:12:25.279Z,2.17
2022-08-21T14:14:55.719Z,2.17
2022-08-21T14:17:33.315Z,2.15
2022-08-21T14:20:02.831Z,2.55
2022-08-21T14:22:44.339Z,2.05
2022-08-21T14:25:15.865Z,1.92
2022-08-21T14:27:50.845Z,2.00
2022-08-21T14:30:23.825Z,2.42
2022-08-21T14:32:53.070Z,1.77
2022-08-21T14:35:23.588Z,1.98
2022-08-21T14:37:55.535Z,2.15
2022-08-21T14:40:25.735Z,1.90
2022-08-21T14:42:54.763Z,2.10
2022-08-21T14:45:31.343Z,1.80
2022-08-21T14:48:00.681Z,1.73
2022-08-21T14:50:28.895Z,2.45
2022-08-21T14:52:58.560Z,2.20
2022-08-21T14:55:28.166Z,2.05
2022-08-21T14:57:59.534Z,2.42
2022-08-21T15:00:35.563Z,2.47
2022-08-21T15:03:05.171Z,2.10
2022-08-21T15:05:34.138Z,1.88
2022-08-21T15:08:05.202Z,1.83
2022-08-21T15:10:41.340Z,1.40
2022-08-21T15:13:21.181Z,1.75
2022-08-21T15:15:53.627Z,2.10
2022-08-21T15:18:22.280Z,2.63
2022-08-21T15:20:50.939Z,1.98
2022-08-21T15:23:21.249Z,1.50
2022-08-21T15:25:51.045Z,1.90
2022-08-21T15:28:21.253Z,2.03
2022-08-21T15:30:53.726Z,5.15
2022-08-21T15:33:22.438Z,2.13
2022-08-21T15:35:50.696Z,2.25
2022-08-21T15:38:20.251Z,2.55
2022-08-21T15:40:52.331Z,2.00
2022-08-21T15:43:29.925Z,1.80
2022-08-21T15:46:00.983Z,1.95
2022-08-21T15:48:31.043Z,2.33
2022-08-21T15:50:59.152Z,1.90
2022-08-21T15:53:28.752Z,2.17
2022-08-21T15:55:57.030Z,2.20
2022-08-21T15:58:25.319Z,1.70
2022-08-21T16:00:53.520Z,2.28
2022-08-21T16:03:22.922Z,2.17
2022-08-21T16:05:53.264Z,2.63
2022-08-21T16:08:22.005Z,2.20
2022-08-21T16:10:52.110Z,2.10
2022-08-21T16:13:27.137Z,1.90
2022-08-21T16:15:55.661Z,2.00
2022-08-21T16:18:26.529Z,2.20
2022-08-21T16:20:54.786Z,2.05
2022-08-21T16:23:23.072Z,2.10
2022-08-21T16:25:52.769Z,2.10
2022-08-21T16:28:22.642Z,2.10
2022-08-21T16:30:52.493Z,2.65
2022-08-21T16:33:28.734Z,2.20
2022-08-21T16:35:57.009Z,2.45
2022-08-21T16:38:25.106Z,2.47
2022-08-21T16:40:55.036Z,2.80
2022-08-21T16:43:26.338Z,4.10
2022-08-21T16:45:55.204Z,2.95
2022-08-21T16:48:24.366Z,3.00
2022-08-21T16:50:52.694Z,2.75
2022-08-21T16:53:20.812Z,3.05
2022-08-21T16:55:50.443Z,3.00
2022-08-21T16:58:26.637Z,2.35
2022-08-21T17:00:55.477Z,2.80
2022-08-21T17:03:30.340Z,2.30
2022-08-21T17:05:58.486Z,2.63
2022-08-21T17:08:26.770Z,2.35
2022-08-21T17:10:55.979Z,2.70
2022-08-21T17:13:27.223Z,2.53
2022-08-21T17:15:55.828Z,2.20
2022-08-21T17:18:26.534Z,2.30
2022-08-21T17:20:55.010Z,3.13
2022-08-21T17:23:23.138Z,2.63
2022-08-21T17:25:55.970Z,2.33
2022-08-21T17:28:30.561Z,2.13
2022-08-21T17:31:02.386Z,2.70
2022-08-21T17:33:42.772Z,2.53
2022-08-21T17:36:11.293Z,2.55
2022-08-21T17:38:39.747Z,2.28
2022-08-21T17:41:08.469Z,2.35
2022-08-21T17:43:39.161Z,2.20
2022-08-21T17:46:07.703Z,2.40
2022-08-21T17:48:35.836Z,2.78
2022-08-21T17:51:04.045Z,2.72
2022-08-21T17:53:32.249Z,2.33
2022-08-21T17:56:00.348Z,2.80
2022-08-21T17:58:28.513Z,2.60
2022-08-21T18:00:58.587Z,2.80
2022-08-21T18:03:26.783Z,2.20
2022-08-21T18:05:56.909Z,2.38
2022-08-21T18:08:25.143Z,2.17
2022-08-21T18:10:53.884Z,3.17
2022-08-21T18:13:28.484Z,2.40
2022-08-21T18:16:01.235Z,2.40
2022-08-21T18:18:34.661Z,2.53
2022-08-21T18:21:02.785Z,2.60
2022-08-21T18:23:44.220Z,2.70
2022-08-21T18:26:16.175Z,2.85
2022-08-21T18:28:45.104Z,3.00
2022-08-21T18:31:15.183Z,3.10
2022-08-21T18:33:57.981Z,2.75
2022-08-21T18:36:27.949Z,3.10
2022-08-21T18:39:13.430Z,3.00
2022-08-21T18:41:48.807Z,2.77
2022-08-21T18:44:19.989Z,3.27
2022-08-21T18:46:56.342Z,3.03
2022-08-21T18:49:24.545Z,3.23
2022-08-21T18:51:52.753Z,3.60
2022-08-21T18:54:21.110Z,3.43
2022-08-21T18:56:51.328Z,3.63
2022-08-21T18:59:30.738Z,3.40
2022-08-21T19:02:00.352Z,2.63
2022-08-21T19:07:20.447Z,3.00
2022-08-21T19:10:07.560Z,2.80
2022-08-21T19:12:39.426Z,2.70
2022-08-21T19:15:11.024Z,2.60
2022-08-21T19:17:41.698Z,3.20
2022-08-21T19:20:25.640Z,2.57
2022-08-21T19:22:56.336Z,3.03
2022-08-21T19:25:33.787Z,3.07
2022-08-21T19:28:11.280Z,3.83
2022-08-21T19:30:45.765Z,4.60
2022-08-21T19:33:23.996Z,4.37
2022-08-21T19:35:52.825Z,4.30
2022-08-21T19:38:21.428Z,3.80
2022-08-21T19:40:49.962Z,3.73
2022-08-21T19:43:23.256Z,3.13
2022-08-21T19:45:54.381Z,3.60
2022-08-21T19:48:24.286Z,3.40
2022-08-21T19:50:53.137Z,3.70
2022-08-21T19:53:21.777Z,3.40
2022-08-21T19:55:50.084Z,3.17
2022-08-21T19:58:35.268Z,3.43
2022-08-21T20:01:11.566Z,3.53
2022-08-21T20:03:54.009Z,3.37
2022-08-21T20:06:25.549Z,3.33
2022-08-21T20:08:55.607Z,3.20
2022-08-21T20:14:22.438Z,3.40
2022-08-21T20:16:52.709Z,3.70
2022-08-21T20:19:23.262Z,3.70
2022-08-21T20:21:51.702Z,3.40
2022-08-21T20:24:19.780Z,3.83
2022-08-21T20:26:49.974Z,3.87
2022-08-21T20:29:23.846Z,3.70
2022-08-21T20:31:54.570Z,3.70
2022-08-21T20:37:13.719Z,4.20
2022-08-21T20:40:01.857Z,4.13
2022-08-21T20:42:30.249Z,4.00
2022-08-21T20:44:58.495Z,3.90
2022-08-21T20:47:26.620Z,4.10
2022-08-21T20:50:05.105Z,4.53
2022-08-21T20:52:36.997Z,4.50
2022-08-21T20:55:13.898Z,4.43
2022-08-21T20:57:50.985Z,4.17
2022-08-21T21:00:22.859Z,4.00
2022-08-21T21:03:01.170Z,4.00
2022-08-21T21:05:39.766Z,3.80
2022-08-21T21:08:16.031Z,4.00
2022-08-21T21:10:50.748Z,4.13
2022-08-21T21:13:27.723Z,4.20
2022-08-21T21:16:01.438Z,4.07
2022-08-21T21:18:36.581Z,3.80
2022-08-21T21:21:20.557Z,4.20
2022-08-21T21:23:56.860Z,4.30
2022-08-21T21:26:32.135Z,4.50
2022-08-21T21:29:13.097Z,4.83
2022-08-21T21:31:42.536Z,4.20
2022-08-21T21:34:17.101Z,4.60
2022-08-21T21:37:01.372Z,3.90
2022-08-21T21:39:36.629Z,4.07
2022-08-21T21:42:13.466Z,4.13
2022-08-21T21:45:00.171Z,4.77
2022-08-21T21:47:45.248Z,4.20
2022-08-21T21:50:34.549Z,4.60
2022-08-21T21:53:24.431Z,4.33
2022-08-21T21:56:08.196Z,4.37
2022-08-21T21:58:55.005Z,4.83
2022-08-21T22:01:34.735Z,4.30
2022-08-21T22:04:10.122Z,4.30
2022-08-21T22:06:51.209Z,4.50
2022-08-21T22:09:42.286Z,4.57
2022-08-21T22:12:29.409Z,4.30
2022-08-21T22:14:58.243Z,4.47
2022-08-21T22:17:36.385Z,4.00
2022-08-21T22:20:25.096Z,4.00
2022-08-21T22:22:57.211Z,4.50
2022-08-21T22:25:31.813Z,4.73
2022-08-21T22:28:06.998Z,4.63
2022-08-21T22:30:45.353Z,4.87
2022-08-21T22:33:20.217Z,4.17
2022-08-21T22:35:51.588Z,4.17
2022-08-21T22:38:33.320Z,4.57
2022-08-21T22:44:07.497Z,4.23
2022-08-21T22:46:50.258Z,4.37
2022-08-21T22:49:31.821Z,4.70
2022-08-21T22:52:11.651Z,4.07
2022-08-21T22:54:45.241Z,5.27
2022-08-21T22:57:28.192Z,5.00
2022-08-21T23:00:00.626Z,5.13
2022-08-21T23:02:38.737Z,4.60
2022-08-21T23:05:19.286Z,4.77
2022-08-21T23:07:50.744Z,5.57
2022-08-21T23:10:29.348Z,5.23
2022-08-21T23:13:09.541Z,5.00
2022-08-21T23:15:49.786Z,4.73
2022-08-21T23:18:29.739Z,4.93
2022-08-21T23:21:10.873Z,5.13
2022-08-21T23:23:59.279Z,4.93
2022-08-21T23:26:34.235Z,5.00
2022-08-21T23:29:24.700Z,4.87
2022-08-21T23:32:04.603Z,5.03
2022-08-21T23:34:44.141Z,5.53
2022-08-21T23:37:51.435Z,5.03
2022-08-21T23:40:51.339Z,4.87
2022-08-21T23:43:43.354Z,5.27
2022-08-21T23:46:35.792Z,5.20
2022-08-21T23:49:22.531Z,6.10
2022-08-21T23:55:10.537Z,4.90
2022-08-21T23:57:54.665Z,4.67
